Aviation Digital Data Service (ADDS)

Output produced by METARs form (1244 UTC 22 March 2019)
found at http://www.aviationweather.gov/metar/data/
 
Forecast for: AYPY (PORT MORESBY INT, PG)
Text: TAF AYPY 220930Z 2212/2312 VRB03KT 9999 SCT040 BKN140
Forecast period: 1200 UTC 22 March 2019 to 1200 UTC 23 March 2019
Forecast type: FROM: standard forecast or significant change
Winds: variable direction winds at 3 MPH (3 knots; 1.5 m/s)
Visibility: 6 or more miles 10+ km)
Ceiling: 14000 feet AGL
Clouds: scattered clouds at 4000 feet AGL
broken clouds at 14000 feet AGL
Weather: no significant weather forecast for this period